Bahia Bustamante, Argentina
Current Conditions -  °F | °C
As of 2:00 AM on Sunday 26 Oct 2014 (Local Time) from SAVC Reporting Station
Clear Clear  
Wind Chill: 63°   Ceiling: Unl
Heat Index: 63°   Visibility: 6mi
Dew Point: 19°   Wind: 14mph
Humidity: 19%   Direction: 250°WSW
Pressure: 29.65"   Gusts: NA
Location:  44.96°S, 66.13°W
Report Text: SAVC 260500Z 25012KT CAVOK 17/M07 Q1004
Loading
Personal Weather Stations






























Interactive Weather Map
Tropical Storm Tracking
New forecast layout! Learn more

10-Day Weather Forecast

Advertisements
Track Severe Weather on mobile